Time;durP1;ratioP1;P1;durP2;ratioP2;P2;SDS_P1;SDS_P2;PMS_P1;PMS_P2;Temp;Humidity;BMP_temperature;BMP_pressure;BME280_temperature;BME280_humidity;BME280_pressure;Samples;Min_cycle;Max_cycle;Signal;HPM_P1;HPM_P2
2023/10/18 00:01:24;;;;;;;6.85;3.70;;;;;;;7.50;68.39;92494.16;2065175;69;20172;-72
2023/10/18 00:03:52;;;;;;;5.35;3.20;;;;;;;7.56;67.50;92494.56;2065199;69;20201;-71
2023/10/18 00:06:21;;;;;;;7.85;3.33;;;;;;;7.57;67.66;92496.78;2065226;69;20143;-71
2023/10/18 00:08:47;;;;;;;5.38;3.40;;;;;;;7.53;67.17;92492.97;2065049;69;20172;-73
2023/10/18 00:11:15;;;;;;;5.60;3.20;;;;;;;7.49;66.95;92490.63;2065220;69;20156;-71
2023/10/18 00:13:41;;;;;;;5.60;3.05;;;;;;;7.49;67.61;92487.84;2067761;69;20160;-71
2023/10/18 00:16:07;;;;;;;7.22;3.20;;;;;;;7.44;66.78;92494.50;2068705;69;20145;-74
2023/10/18 00:18:35;;;;;;;5.72;3.50;;;;;;;7.09;70.27;92494.16;2068432;69;20155;-72
2023/10/18 00:21:03;;;;;;;6.60;3.13;;;;;;;7.21;69.29;92497.81;2065407;69;20547;-72
2023/10/18 00:23:32;;;;;;;7.15;3.33;;;;;;;7.27;67.98;92480.69;2068645;69;20144;-70
2023/10/18 00:26:05;;;;;;;6.72;3.05;;;;;;;7.32;67.61;92485.25;2064982;69;20143;-73
2023/10/18 00:28:31;;;;;;;;;;;;;;;7.28;68.31;92477.28;2068784;69;20165;-72
2023/10/18 00:31:09;;;;;;;9.27;3.78;;;;;;;7.27;67.64;92477.91;2065325;69;20100;-71
2023/10/18 00:33:35;;;;;;;7.97;3.42;;;;;;;7.28;68.28;92470.97;2065101;69;20230;-71
2023/10/18 00:36:00;;;;;;;7.03;3.65;;;;;;;7.19;68.32;92477.31;2065241;69;20148;-72
2023/10/18 00:38:26;;;;;;;6.40;3.38;;;;;;;7.26;68.00;92468.03;2065163;69;20192;-73
2023/10/18 00:40:51;;;;;;;5.65;3.50;;;;;;;7.14;68.74;92465.84;2065333;69;20233;-71
2023/10/18 00:43:20;;;;;;;5.20;3.20;;;;;;;7.10;68.98;92462.78;2065263;69;20160;-70
2023/10/18 00:45:51;;;;;;;6.55;3.13;;;;;;;7.13;68.41;92460.84;2064879;69;20214;-71
2023/10/18 00:48:23;;;;;;;6.70;3.30;;;;;;;7.13;69.00;92455.25;2068385;69;20180;-72
2023/10/18 00:50:52;;;;;;;7.97;3.40;;;;;;;7.12;68.35;92456.59;2065277;69;20148;-70
2023/10/18 00:53:25;;;;;;;5.05;3.20;;;;;;;7.02;68.51;92442.63;2062366;69;20592;-71
2023/10/18 00:56:05;;;;;;;4.65;3.08;;;;;;;7.03;68.84;92454.56;2068434;69;20160;-70
2023/10/18 00:58:33;;;;;;;5.10;2.88;;;;;;;7.05;68.70;92449.09;2069064;69;20168;-71
2023/10/18 01:01:10;;;;;;;5.18;3.10;;;;;;;7.02;69.02;92445.44;2065351;69;20438;-72
2023/10/18 01:03:46;;;;;;;6.95;2.88;;;;;;;7.03;68.98;92437.75;2062904;69;20141;-71
2023/10/18 01:06:17;;;;;;;6.03;2.75;;;;;;;6.97;69.63;92426.16;2065574;69;20468;-70
2023/10/18 01:08:47;;;;;;;4.18;2.90;;;;;;;6.93;69.25;92434.25;2065570;69;20259;-71
2023/10/18 01:11:14;;;;;;;4.80;2.80;;;;;;;7.01;67.80;92427.16;2069059;69;20590;-71
2023/10/18 01:13:42;;;;;;;4.88;2.92;;;;;;;6.88;69.30;92425.59;2065377;69;20180;-73
2023/10/18 01:16:13;;;;;;;5.45;3.08;;;;;;;6.91;69.03;92423.66;2065159;69;20174;-71
2023/10/18 01:18:42;;;;;;;5.15;3.00;;;;;;;6.90;69.65;92419.38;2068559;69;20148;-71
2023/10/18 01:21:19;;;;;;;5.25;3.00;;;;;;;6.79;69.26;92408.84;2068944;69;20145;-71
2023/10/18 01:24:13;;;;;;;6.97;2.60;;;;;;;6.85;68.90;92414.84;2069015;69;20140;-72
2023/10/18 01:26:39;;;;;;;8.98;3.60;;;;;;;6.88;69.06;92408.78;2065327;69;20160;-72
2023/10/18 01:29:09;;;;;;;4.00;2.90;;;;;;;6.85;68.82;92412.78;2065393;69;20155;-71
2023/10/18 01:31:36;;;;;;;3.92;2.53;;;;;;;6.87;67.91;92403.78;2068916;69;20185;-71
2023/10/18 01:34:03;;;;;;;4.93;2.78;;;;;;;6.88;68.42;92405.28;2068833;69;20148;-72
2023/10/18 01:36:32;;;;;;;3.92;2.60;;;;;;;6.81;68.58;92395.69;2065514;69;20137;-72
2023/10/18 01:38:58;;;;;;;5.80;3.10;;;;;;;6.75;68.38;92392.50;2065526;69;20132;-72
2023/10/18 01:41:25;;;;;;;6.65;2.50;;;;;;;6.76;69.24;92399.56;2065440;69;20636;-71
2023/10/18 01:44:06;;;;;;;5.07;2.67;;;;;;;6.82;67.79;92394.38;2068473;69;20148;-70
2023/10/18 01:46:36;;;;;;;9.27;2.60;;;;;;;6.70;68.97;92392.81;2068901;69;20148;-72
2023/10/18 01:49:04;;;;;;;7.03;3.30;;;;;;;6.56;68.86;92384.91;2065315;69;20315;-70
2023/10/18 01:51:32;;;;;;;5.80;2.75;;;;;;;6.63;68.14;92400.75;2068732;69;20145;-71
2023/10/18 01:54:05;;;;;;;5.72;2.83;;;;;;;6.70;68.21;92396.34;2065534;69;20529;-71
2023/10/18 01:56:31;;;;;;;9.50;2.90;;;;;;;6.59;69.39;92389.28;2065595;69;20149;-71
2023/10/18 01:58:57;;;;;;;5.72;2.80;;;;;;;6.52;69.31;92378.28;2065420;69;20140;-70
2023/10/18 02:01:23;;;;;;;5.93;3.10;;;;;;;6.59;69.15;92380.91;2068859;69;20220;-73
2023/10/18 02:03:50;;;;;;;4.35;2.90;;;;;;;6.58;69.50;92373.09;2065549;69;20592;-72
2023/10/18 02:06:17;;;;;;;6.10;3.08;;;;;;;6.44;70.17;92374.91;2065456;69;20576;-71
2023/10/18 02:08:43;;;;;;;5.63;2.90;;;;;;;6.50;69.69;92362.06;2068582;69;20152;-71
2023/10/18 02:11:09;;;;;;;7.70;2.95;;;;;;;6.51;69.85;92371.22;2062683;69;20152;-73
2023/10/18 02:13:37;;;;;;;6.22;2.92;;;;;;;6.54;70.13;92375.63;2068732;69;20140;-76
2023/10/18 02:16:07;;;;;;;6.55;2.80;;;;;;;6.56;69.91;92370.91;2068948;69;20216;-74
2023/10/18 02:18:33;;;;;;;5.28;2.92;;;;;;;6.57;69.07;92369.56;2068813;69;20148;-73
2023/10/18 02:21:00;;;;;;;5.03;2.75;;;;;;;6.57;69.01;92371.63;2068941;69;20208;-73
2023/10/18 02:23:34;;;;;;;6.63;2.65;;;;;;;6.53;69.27;92366.50;2068895;69;20151;-75
2023/10/18 02:26:02;;;;;;;6.38;3.08;;;;;;;6.46;69.50;92359.03;2069059;69;20195;-73
2023/10/18 02:28:27;;;;;;;12.27;6.03;;;;;;;6.41;70.08;92370.50;2062946;69;20679;-72
2023/10/18 02:30:58;;;;;;;9.20;5.55;;;;;;;6.37;69.17;92368.16;2068941;69;20145;-72
2023/10/18 02:33:38;;;;;;;5.32;3.20;;;;;;;6.45;69.57;92376.38;2069041;69;20691;-72
2023/10/18 02:36:11;;;;;;;6.05;3.22;;;;;;;6.44;69.12;92377.69;2069070;69;20240;-72
2023/10/18 02:38:41;;;;;;;7.22;3.00;;;;;;;6.41;69.77;92379.63;2065753;69;20620;-72
2023/10/18 02:41:21;;;;;;;6.63;3.00;;;;;;;6.29;69.70;92370.38;2069239;69;20144;-72
2023/10/18 02:44:12;;;;;;;6.18;3.33;;;;;;;6.31;69.84;92379.63;2069036;69;20266;-73
2023/10/18 02:46:33;;;;;;;5.63;3.30;;;;;;;6.32;69.61;92364.34;2069044;69;20185;-72
2023/10/18 02:49:00;;;;;;;6.47;3.58;;;;;;;6.32;68.72;92369.19;2069083;69;20145;-71
2023/10/18 02:51:28;;;;;;;8.20;3.22;;;;;;;6.25;70.21;92361.72;2069041;69;20143;-72
2023/10/18 02:54:13;;;;;;;5.75;3.50;;;;;;;6.32;69.32;92363.59;2068965;69;20255;-72
2023/10/18 02:56:39;;;;;;;5.32;3.17;;;;;;;6.25;69.73;92365.22;2069041;69;20191;-73
2023/10/18 02:59:08;;;;;;;5.75;3.30;;;;;;;6.21;69.63;92359.34;2068246;69;20148;-73
2023/10/18 03:01:40;;;;;;;8.98;3.47;;;;;;;6.24;69.72;92355.38;2068709;69;20145;-73
2023/10/18 03:04:14;;;;;;;4.47;2.80;;;;;;;6.25;69.15;92348.47;2065375;69;20202;-74
2023/10/18 03:06:47;;;;;;;4.50;2.72;;;;;;;6.17;69.45;92350.69;2068855;69;20235;-74
2023/10/18 03:11:58;;;;;;;4.10;2.65;;;;;;;6.18;69.57;92340.97;2068085;69;20188;-74
2023/10/18 03:17:35;;;;;;;7.85;2.80;;;;;;;6.16;68.64;92349.22;2068815;69;20674;-75
2023/10/18 03:19:58;;;;;;;7.28;3.00;;;;;;;6.14;68.99;92348.31;2068699;69;20615;-73
2023/10/18 03:22:31;;;;;;;5.68;3.38;;;;;;;6.10;69.53;92346.00;2065723;69;20128;-73
2023/10/18 03:25:00;;;;;;;4.95;2.95;;;;;;;6.04;69.12;92345.53;2068987;69;20149;-74
2023/10/18 03:27:32;;;;;;;5.05;2.92;;;;;;;6.06;69.78;92338.06;2065707;69;20136;-72
2023/10/18 03:30:09;;;;;;;7.00;3.15;;;;;;;5.99;69.64;92333.34;2069164;69;20140;-72
2023/10/18 03:32:36;;;;;;;5.47;3.53;;;;;;;5.94;69.95;92330.84;2065801;69;20141;-73
2023/10/18 03:35:08;;;;;;;8.00;4.43;;;;;;;6.00;69.97;92336.88;2065744;69;20144;-73
2023/10/18 03:37:39;;;;;;;9.02;4.53;;;;;;;5.95;69.35;92332.31;2065698;69;20296;-74
2023/10/18 03:40:24;;;;;;;7.30;4.30;;;;;;;5.87;70.21;92335.25;2065718;69;20140;-73
2023/10/18 03:42:54;;;;;;;7.78;4.30;;;;;;;5.98;69.92;92334.69;2066135;69;20247;-74
2023/10/18 03:45:22;;;;;;;8.45;4.40;;;;;;;5.86;70.21;92330.97;2065632;69;20167;-73
2023/10/18 03:47:58;;;;;;;6.13;3.88;;;;;;;5.79;70.36;92327.03;2068375;69;20153;-73
2023/10/18 03:50:38;;;;;;;5.15;3.17;;;;;;;5.89;70.76;92345.84;2065497;69;20232;-72
2023/10/18 03:53:06;;;;;;;7.03;3.53;;;;;;;5.89;70.26;92337.47;2065464;69;20206;-72
2023/10/18 03:55:38;;;;;;;7.15;4.00;;;;;;;5.79;70.66;92338.19;2065376;69;20197;-72
2023/10/18 03:58:05;;;;;;;6.78;3.92;;;;;;;5.81;69.76;92332.00;2065516;69;20213;-72
2023/10/18 04:00:46;;;;;;;5.35;3.20;;;;;;;5.82;69.70;92339.09;2068948;69;20195;-72
2023/10/18 04:03:12;;;;;;;4.80;2.92;;;;;;;5.79;70.17;92332.59;2065398;69;20144;-72
2023/10/18 04:08:08;;;;;;;5.35;3.30;;;;;;;5.83;70.50;92332.91;2068982;69;20144;-71
2023/10/18 04:10:37;;;;;;;5.85;3.10;;;;;;;5.80;70.03;92339.66;2068791;69;20650;-71
2023/10/18 04:13:06;;;;;;;4.60;3.15;;;;;;;5.78;69.88;92333.94;2068769;69;20144;-74
2023/10/18 04:15:37;;;;;;;5.63;3.20;;;;;;;5.79;69.75;92340.25;2068934;69;20184;-72
2023/10/18 04:18:11;;;;;;;6.20;3.03;;;;;;;5.74;70.33;92330.84;2068674;69;20222;-71
2023/10/18 04:20:42;;;;;;;8.55;3.35;;;;;;;5.81;70.31;92327.16;2068723;69;20140;-73
2023/10/18 04:23:26;;;;;;;5.25;3.53;;;;;;;5.85;71.04;92326.72;2065629;69;20194;-75
2023/10/18 04:25:58;;;;;;;5.15;3.30;;;;;;;5.84;69.84;92320.41;2068633;69;20137;-73
2023/10/18 04:28:25;;;;;;;8.18;3.60;;;;;;;5.65;71.49;92314.84;2068686;69;20593;-72
2023/10/18 04:30:59;;;;;;;5.85;3.63;;;;;;;5.83;70.24;92321.72;2068678;69;20294;-73
2023/10/18 04:33:28;;;;;;;5.90;3.72;;;;;;;5.80;70.12;92314.53;2069214;69;20152;-75
2023/10/18 04:35:56;;;;;;;5.63;3.45;;;;;;;5.84;70.59;92325.25;2065820;69;20149;-74
2023/10/18 04:38:24;;;;;;;7.45;3.90;;;;;;;5.81;70.47;92334.81;2068887;69;20155;-75
2023/10/18 04:41:01;;;;;;;9.75;5.95;;;;;;;5.75;70.78;92315.56;2062713;69;20151;-73
2023/10/18 04:43:32;;;;;;;7.90;5.25;;;;;;;5.70;71.11;92324.97;2068724;69;20149;-74
2023/10/18 04:46:00;;;;;;;13.52;7.80;;;;;;;5.60;71.26;92324.97;2068855;69;20180;-74
2023/10/18 04:51:18;;;;;;;9.70;6.28;;;;;;;5.73;70.62;92320.28;2069005;69;20587;-73
2023/10/18 04:53:45;;;;;;;12.50;6.55;;;;;;;5.75;70.06;92314.81;2060501;69;20139;-74
2023/10/18 04:56:11;;;;;;;10.73;6.35;;;;;;;5.74;70.59;92308.50;2065388;69;20162;-72
2023/10/18 04:58:40;;;;;;;13.60;7.75;;;;;;;5.75;71.03;92309.25;2065425;69;20144;-74
2023/10/18 05:01:07;;;;;;;15.05;7.78;;;;;;;5.76;71.10;92314.22;2065652;69;20140;-74
2023/10/18 05:03:33;;;;;;;11.13;7.07;;;;;;;5.76;70.63;92310.69;2068805;69;20145;-72
2023/10/18 05:05:59;;;;;;;12.23;6.95;;;;;;;5.81;70.70;92307.59;2068857;69;20206;-72
2023/10/18 05:08:29;;;;;;;8.88;6.75;;;;;;;5.84;70.16;92302.91;2068820;69;20160;-74
2023/10/18 05:11:22;;;;;;;7.88;5.53;;;;;;;5.88;70.28;92311.56;2065666;69;20218;-74
2023/10/18 05:13:42;;;;;;;10.75;5.82;;;;;;;5.91;70.68;92315.25;2068763;69;20674;-74
2023/10/18 05:16:11;;;;;;;4.32;3.08;;;;;;;5.96;69.82;92303.06;2068830;69;20684;-75
2023/10/18 05:18:37;;;;;;;5.72;3.00;;;;;;;6.08;69.82;92304.66;2068479;69;20140;-73
2023/10/18 05:21:10;;;;;;;3.83;2.40;;;;;;;6.24;68.65;92299.47;2065824;69;20184;-74
2023/10/18 05:23:36;;;;;;;;;;;;;;;6.18;69.64;92301.84;2066011;69;20170;-73
2023/10/18 05:34:06;;;;;;;8.50;4.80;;;;;;;6.28;69.18;92305.34;2068727;69;20149;-75
2023/10/18 05:36:35;;;;;;;9.80;4.55;;;;;;;6.39;68.47;92286.47;2068803;69;20137;-76
2023/10/18 05:39:27;;;;;;;8.15;5.20;;;;;;;6.42;68.46;92286.03;2068528;69;20246;-75
2023/10/18 05:41:51;;;;;;;8.98;4.57;;;;;;;6.52;68.29;92283.94;2068772;69;20619;-73
2023/10/18 05:44:20;;;;;;;3.65;2.60;;;;;;;6.54;68.15;92277.72;2068991;69;20596;-74
2023/10/18 05:46:46;;;;;;;3.70;2.55;;;;;;;6.56;68.63;92281.41;2069269;69;20172;-72
2023/10/18 05:49:15;;;;;;;5.20;3.00;;;;;;;6.51;67.40;92290.84;2068694;69;20227;-76
2023/10/18 05:51:57;;;;;;;7.50;4.15;;;;;;;6.58;67.62;92303.19;2069159;69;20148;-72
2023/10/18 05:54:24;;;;;;;8.13;4.97;;;;;;;6.90;66.14;92303.94;2069386;69;20601;-75
2023/10/18 05:56:51;;;;;;;6.30;4.10;;;;;;;6.87;66.69;92286.25;2068811;69;20175;-74
2023/10/18 06:01:51;;;;;;;10.68;4.60;;;;;;;7.12;66.51;92291.44;2069104;69;20141;-72
2023/10/18 06:04:37;;;;;;;7.20;3.50;;;;;;;7.25;66.17;92298.56;2069101;69;20148;-73
2023/10/18 06:07:10;;;;;;;5.18;2.85;;;;;;;7.29;65.68;92279.25;2069242;69;20172;-73
2023/10/18 06:09:55;;;;;;;4.97;2.30;;;;;;;7.36;65.36;92284.63;2069185;69;20137;-74
2023/10/18 06:12:24;;;;;;;4.13;2.50;;;;;;;7.34;66.59;92276.09;2068442;69;20156;-74
2023/10/18 06:14:53;;;;;;;4.68;2.55;;;;;;;7.47;65.66;92280.44;2065864;69;20561;-73
2023/10/18 06:17:22;;;;;;;4.68;3.17;;;;;;;7.41;65.18;92285.63;2069104;69;20157;-74
2023/10/18 06:19:50;;;;;;;5.78;4.10;;;;;;;7.26;66.87;92283.25;2069089;69;20539;-75
2023/10/18 06:22:28;;;;;;;7.57;4.70;;;;;;;7.53;65.96;92285.69;2069100;69;20238;-74
2023/10/18 06:24:57;;;;;;;19.70;9.45;;;;;;;7.52;66.17;92279.38;2069261;69;20140;-73
2023/10/18 06:27:23;;;;;;;18.30;9.68;;;;;;;7.59;66.47;92280.47;2068889;69;20152;-71
2023/10/18 06:29:56;;;;;;;16.63;8.27;;;;;;;7.67;66.24;92266.28;2068900;69;20152;-73
2023/10/18 06:32:22;;;;;;;15.10;8.23;;;;;;;7.87;65.18;92271.09;2068871;69;20178;-71
2023/10/18 06:34:55;;;;;;;11.45;6.82;;;;;;;8.00;65.11;92271.88;2069340;69;20136;-73
2023/10/18 06:37:40;;;;;;;15.27;7.35;;;;;;;8.11;65.57;92271.19;2069237;69;20583;-72
2023/10/18 06:40:20;;;;;;;15.65;5.97;;;;;;;8.10;63.82;92278.09;2069320;69;20160;-75
2023/10/18 06:42:47;;;;;;;9.50;6.13;;;;;;;8.17;65.41;92271.56;2069329;69;20153;-73
2023/10/18 06:45:18;;;;;;;11.27;7.25;;;;;;;8.24;65.58;92276.19;2069553;69;20295;-72
2023/10/18 06:47:44;;;;;;;13.43;7.03;;;;;;;8.24;64.43;92276.19;2069557;69;20140;-74
2023/10/18 06:50:11;;;;;;;9.10;4.93;;;;;;;8.26;65.64;92270.00;2069487;69;20152;-73
2023/10/18 06:52:44;;;;;;;9.65;5.43;;;;;;;8.22;64.31;92273.28;2066184;69;20141;-73
2023/10/18 06:55:15;;;;;;;7.68;4.43;;;;;;;8.38;64.94;92282.72;2066100;69;20711;-74
2023/10/18 06:57:42;;;;;;;7.53;5.05;;;;;;;8.32;65.64;92278.78;2068800;69;20172;-74
2023/10/18 07:00:12;;;;;;;10.60;4.97;;;;;;;8.48;64.50;92279.81;2062575;69;20592;-74
2023/10/18 07:02:38;;;;;;;8.43;5.22;;;;;;;8.44;65.59;92268.34;2068859;69;20152;-74
2023/10/18 07:05:04;;;;;;;7.82;5.03;;;;;;;8.51;63.17;92272.97;2068984;69;20659;-73
2023/10/18 07:07:31;;;;;;;9.18;4.28;;;;;;;8.53;65.14;92278.00;2069039;69;20143;-74
2023/10/18 07:09:57;;;;;;;7.85;4.72;;;;;;;8.54;65.17;92271.75;2068818;69;20595;-74
2023/10/18 07:12:26;;;;;;;8.00;4.22;;;;;;;8.56;64.49;92265.53;2068898;69;20151;-73
2023/10/18 07:14:56;;;;;;;21.50;5.05;;;;;;;8.57;64.73;92262.13;2069022;69;20152;-73
2023/10/18 07:17:24;;;;;;;8.40;4.43;;;;;;;8.37;65.61;92252.47;2068784;69;20156;-73
2023/10/18 07:19:59;;;;;;;10.13;4.45;;;;;;;8.63;64.66;92259.69;2068776;69;20228;-72
2023/10/18 07:23:13;;;;;;;8.85;4.57;;;;;;;8.71;65.05;92259.47;2068902;69;20148;-72
2023/10/18 07:25:21;;;;;;;7.00;4.03;;;;;;;8.78;64.51;92255.66;2067158;69;20153;-72
2023/10/18 07:27:47;;;;;;;8.00;4.20;;;;;;;8.79;65.48;92251.50;2065640;69;20132;-73
2023/10/18 07:30:16;;;;;;;13.43;6.40;;;;;;;8.57;65.73;92256.53;2065844;69;20199;-73
2023/10/18 07:32:47;;;;;;;8.30;5.00;;;;;;;8.45;65.90;92257.84;2069325;69;20195;-73
2023/10/18 07:35:26;;;;;;;8.18;4.75;;;;;;;8.58;64.86;92246.03;2069186;69;20235;-72
2023/10/18 07:37:55;;;;;;;8.48;4.85;;;;;;;8.80;64.81;92252.25;2068776;69;20185;-72
2023/10/18 07:40:21;;;;;;;9.98;6.18;;;;;;;8.96;64.33;92249.69;2065384;69;20152;-72
2023/10/18 07:42:51;;;;;;;9.52;5.60;;;;;;;8.96;64.64;92244.78;2068843;69;20128;-74
2023/10/18 07:45:21;;;;;;;4.40;2.30;;;;;;;8.86;62.86;92247.00;2069021;69;20207;-75
2023/10/18 07:47:54;;;;;;;12.13;5.95;;;;;;;8.53;65.91;92249.94;2068919;69;20666;-75
2023/10/18 07:53:05;;;;;;;11.27;5.38;;;;;;;9.01;63.97;92254.19;2068942;69;20152;-73
2023/10/18 07:55:37;;;;;;;9.38;5.38;;;;;;;9.04;64.55;92253.69;2068721;69;20171;-72
2023/10/18 07:58:47;;;;;;;11.37;5.80;;;;;;;9.11;64.52;92252.69;2068531;69;20516;-73
2023/10/18 08:03:31;;;;;;;13.43;6.60;;;;;;;9.17;64.39;92246.72;2068682;69;20644;-72
2023/10/18 08:05:59;;;;;;;9.85;6.50;;;;;;;9.35;65.72;92238.63;2068362;69;20535;-74
2023/10/18 08:08:25;;;;;;;9.20;5.80;;;;;;;9.53;66.28;92234.06;2068799;69;20552;-74
2023/10/18 08:10:55;;;;;;;8.55;5.57;;;;;;;9.93;65.50;92229.97;2068813;69;20188;-73
2023/10/18 08:13:28;;;;;;;8.93;5.47;;;;;;;10.16;62.18;92226.28;2068723;69;20171;-74
2023/10/18 08:16:09;;;;;;;8.73;5.63;;;;;;;10.51;62.88;92222.56;2065483;69;20612;-73
2023/10/18 08:18:52;;;;;;;9.27;5.28;;;;;;;10.88;63.17;92224.47;2068749;69;20151;-74
2023/10/18 08:21:37;;;;;;;9.37;5.53;;;;;;;11.05;61.52;92223.25;2068352;69;20148;-73
2023/10/18 08:24:18;;;;;;;9.23;4.20;;;;;;;11.49;59.87;92212.75;2068985;69;20175;-73
2023/10/18 08:26:46;;;;;;;11.60;6.40;;;;;;;11.69;58.73;92216.56;2069032;69;20147;-73
2023/10/18 08:29:14;;;;;;;10.27;5.70;;;;;;;12.03;58.33;92216.78;2068895;69;20239;-74
2023/10/18 08:31:43;;;;;;;4.65;3.38;;;;;;;12.66;55.33;92211.97;2068909;69;20165;-72
2023/10/18 08:34:15;;;;;;;4.50;2.95;;;;;;;12.37;55.88;92220.50;2068997;69;20136;-71
2023/10/18 08:36:44;;;;;;;4.72;2.38;;;;;;;12.71;54.26;92229.81;2065833;69;20145;-72
2023/10/18 08:39:11;;;;;;;5.22;3.10;;;;;;;13.08;54.17;92226.53;2068951;69;20231;-72
2023/10/18 08:41:49;;;;;;;5.22;3.53;;;;;;;12.99;53.31;92221.91;2068721;69;20152;-72
2023/10/18 08:44:24;;;;;;;5.55;3.20;;;;;;;13.65;53.81;92214.88;2068487;69;20205;-71
2023/10/18 08:47:12;;;;;;;5.53;3.10;;;;;;;13.92;53.93;92213.09;2068666;69;20144;-72
2023/10/18 08:49:53;;;;;;;5.15;2.30;;;;;;;14.19;51.04;92212.06;2068102;69;20141;-72
2023/10/18 08:52:20;;;;;;;6.82;2.53;;;;;;;14.23;49.96;92204.47;2065501;69;20144;-72
2023/10/18 08:54:48;;;;;;;4.55;2.97;;;;;;;14.39;49.80;92201.53;2068628;69;20647;-72
2023/10/18 08:57:24;;;;;;;5.88;3.40;;;;;;;14.39;50.89;92195.88;2065388;69;20160;-72
2023/10/18 08:59:51;;;;;;;16.90;9.88;;;;;;;14.74;50.56;92200.03;2068826;69;20753;-72
2023/10/18 09:02:18;;;;;;;20.13;10.38;;;;;;;15.01;49.96;92187.56;2068952;69;20152;-72
2023/10/18 09:04:55;;;;;;;8.82;4.90;;;;;;;15.27;49.40;92184.22;2062807;69;20158;-73
2023/10/18 09:07:43;;;;;;;;;;;;;;;15.45;48.70;92188.44;2068821;69;20145;-72
2023/10/18 09:10:13;;;;;;;3.92;2.63;;;;;;;15.08;49.81;92183.59;2069029;69;20045;-73
2023/10/18 09:15:27;;;;;;;8.63;4.63;;;;;;;15.80;48.33;92181.09;2065608;69;20145;-73
2023/10/18 09:18:03;;;;;;;5.93;2.55;;;;;;;15.89;48.01;92191.34;2065873;69;20157;-74
2023/10/18 09:20:30;;;;;;;2.25;1.73;;;;;;;16.09;47.01;92184.88;2065541;69;20133;-73
2023/10/18 09:23:14;;;;;;;2.45;1.60;;;;;;;17.23;45.44;92183.38;2066125;69;20157;-73
2023/10/18 09:28:42;;;;;;;3.95;2.08;;;;;;;17.99;42.52;92183.25;2061877;69;20582;-74
2023/10/18 09:31:11;;;;;;;4.60;3.45;;;;;;;17.18;43.46;92178.22;2066050;69;20314;-73
2023/10/18 09:33:58;;;;;;;2.78;2.15;;;;;;;17.18;44.01;92181.81;2066038;69;20145;-73
2023/10/18 09:36:24;;;;;;;2.03;1.30;;;;;;;17.70;42.59;92167.56;2066155;69;20147;-75
2023/10/18 09:38:51;;;;;;;2.20;1.45;;;;;;;17.30;42.18;92166.47;2066048;69;20149;-73
2023/10/18 09:41:17;;;;;;;2.58;1.40;;;;;;;18.43;40.38;92173.63;2066104;69;20665;-76
2023/10/18 09:43:44;;;;;;;2.00;1.40;;;;;;;19.05;40.50;92168.59;2065327;69;20133;-74
2023/10/18 09:46:10;;;;;;;3.13;1.27;;;;;;;18.94;40.24;92177.63;2065711;69;20220;-75
2023/10/18 09:48:41;;;;;;;2.13;1.25;;;;;;;19.17;40.48;92171.00;2066174;69;20229;-74
2023/10/18 09:51:08;;;;;;;1.67;1.30;;;;;;;19.88;39.70;92165.94;2066114;69;20156;-73
2023/10/18 09:53:42;;;;;;;2.55;1.55;;;;;;;20.77;37.46;92143.81;2066049;69;20632;-74
2023/10/18 09:56:18;;;;;;;3.25;1.65;;;;;;;20.69;38.05;92157.28;2066012;69;20155;-75
2023/10/18 09:58:48;;;;;;;2.45;1.60;;;;;;;20.40;36.70;92159.69;2065444;69;20608;-76
2023/10/18 10:01:21;;;;;;;2.80;1.63;;;;;;;20.69;36.78;92148.69;2065718;69;20137;-78
2023/10/18 10:03:52;;;;;;;2.17;1.55;;;;;;;20.18;35.39;92150.75;2066217;69;20129;-75
2023/10/18 10:06:25;;;;;;;2.92;1.52;;;;;;;20.94;35.94;92141.91;2065677;69;20145;-77
2023/10/18 10:09:11;;;;;;;2.08;1.50;;;;;;;21.87;34.46;92135.84;2065665;69;20152;-75
2023/10/18 10:11:46;;;;;;;1.60;1.40;;;;;;;22.47;34.86;92137.13;2065559;69;20234;-77
2023/10/18 10:14:17;;;;;;;2.00;1.38;;;;;;;22.78;33.47;92135.19;2065438;69;20194;-74
2023/10/18 10:16:52;;;;;;;2.53;1.35;;;;;;;23.96;33.89;92124.25;2066189;69;20221;-74
2023/10/18 10:19:23;;;;;;;2.03;1.42;;;;;;;24.07;33.33;92130.72;2065856;69;20492;-74
2023/10/18 10:21:50;;;;;;;2.28;1.50;;;;;;;25.06;30.57;92127.13;2065238;69;20621;-77
2023/10/18 10:24:35;;;;;;;2.72;1.38;;;;;;;23.84;30.61;92118.47;2066173;69;20133;-76
2023/10/18 10:30:03;;;;;;;3.35;1.65;;;;;;;25.28;31.06;92114.13;2065888;69;20615;-79
2023/10/18 10:32:31;;;;;;;2.15;1.20;;;;;;;26.81;30.46;92116.13;2065977;69;20275;-73
2023/10/18 10:35:17;;;;;;;1.60;1.25;;;;;;;26.29;29.61;92118.66;2065742;69;20236;-77
2023/10/18 10:37:49;;;;;;;2.65;1.27;;;;;;;24.88;31.09;92112.78;2065862;69;20151;-73
2023/10/18 10:43:09;;;;;;;2.28;1.38;;;;;;;26.05;29.53;92110.91;2065541;69;20156;-76
2023/10/18 10:50:53;;;;;;;1.30;1.10;;;;;;;24.23;29.46;92095.50;2065665;69;20163;-74
2023/10/18 10:53:43;;;;;;;2.60;1.23;;;;;;;26.25;28.49;92086.25;2065639;69;20145;-73
2023/10/18 10:56:21;;;;;;;1.70;1.20;;;;;;;25.67;28.46;92082.28;2065411;69;20161;-72
2023/10/18 10:58:55;;;;;;;2.17;1.30;;;;;;;25.83;27.88;92077.16;2065350;69;20227;-73
2023/10/18 11:01:39;;;;;;;1.67;1.35;;;;;;;26.32;27.17;92071.06;2065472;69;20153;-74
2023/10/18 11:04:29;;;;;;;2.63;1.55;;;;;;;25.95;28.58;92069.88;2065455;69;20232;-73
2023/10/18 11:06:57;;;;;;;3.15;1.27;;;;;;;26.40;28.85;92069.56;2065680;69;20149;-75
2023/10/18 11:09:33;;;;;;;3.03;1.45;;;;;;;26.91;30.17;92069.84;2065366;69;20153;-72
2023/10/18 11:12:08;;;;;;;1.52;1.20;;;;;;;26.06;28.70;92066.19;2065566;69;20177;-73
2023/10/18 11:14:38;;;;;;;1.63;1.20;;;;;;;26.04;29.84;92059.75;2068730;69;20175;-71
2023/10/18 11:19:44;;;;;;;1.77;1.10;;;;;;;27.88;27.36;92035.47;2068861;69;20489;-73
2023/10/18 11:22:13;;;;;;;1.63;1.13;;;;;;;27.57;27.87;92038.03;2068825;69;20149;-74
2023/10/18 11:24:42;;;;;;;2.25;1.30;;;;;;;27.60;27.13;92036.56;2068860;69;20136;-74
2023/10/18 11:27:08;;;;;;;2.13;0.90;;;;;;;28.30;27.11;92030.50;2065343;69;20156;-73
2023/10/18 11:29:38;;;;;;;4.13;1.20;;;;;;;30.80;25.05;92032.69;2069036;69;20148;-74
2023/10/18 11:32:08;;;;;;;2.45;1.17;;;;;;;34.36;22.93;92043.19;2065623;69;20176;-76
2023/10/18 11:34:43;;;;;;;1.80;1.20;;;;;;;33.78;22.49;92029.31;2068908;69;20152;-74
2023/10/18 11:37:09;;;;;;;2.03;1.15;;;;;;;35.22;20.91;92028.75;2065514;69;20136;-75
2023/10/18 11:39:36;;;;;;;1.70;1.30;;;;;;;38.03;19.06;92028.59;2068498;69;20148;-76
2023/10/18 11:42:06;;;;;;;1.58;0.82;;;;;;;35.21;19.51;92014.94;2068674;69;20295;-79
2023/10/18 11:44:34;;;;;;;2.10;1.00;;;;;;;32.47;21.78;91998.09;2069561;69;20168;-77
2023/10/18 11:47:11;;;;;;;1.38;1.10;;;;;;;29.19;24.84;91992.75;2068929;69;20144;-78
2023/10/18 11:49:43;;;;;;;1.50;1.02;;;;;;;30.07;23.80;91982.88;2068949;69;20141;-73
2023/10/18 11:52:17;;;;;;;1.42;0.95;;;;;;;29.55;25.89;91971.00;2065524;69;20145;-75
2023/10/18 11:54:44;;;;;;;2.72;1.10;;;;;;;28.36;26.15;91963.84;2065509;69;20149;-75
2023/10/18 11:57:24;;;;;;;3.85;1.17;;;;;;;29.00;25.65;91957.63;2068805;69;20176;-79
2023/10/18 11:59:57;;;;;;;1.52;1.20;;;;;;;29.27;26.34;91957.78;2068904;69;20579;-76
2023/10/18 12:02:28;;;;;;;;;;;;;;;29.62;26.20;91960.69;2069158;69;20180;-75
2023/10/18 12:04:57;;;;;;;1.67;1.13;;;;;;;28.34;27.39;91952.28;2065614;69;20045;-75
2023/10/18 12:07:24;;;;;;;1.50;1.10;;;;;;;26.99;27.86;91948.47;2068925;69;20170;-75
2023/10/18 12:09:54;;;;;;;2.10;1.05;;;;;;;31.43;23.53;91961.25;2068067;69;20148;-74
2023/10/18 12:12:20;;;;;;;1.38;0.90;;;;;;;38.55;18.91;91969.16;2068508;69;20195;-75
2023/10/18 12:14:47;;;;;;;1.95;1.15;;;;;;;40.00;17.59;91974.63;2068779;69;20165;-73
2023/10/18 12:17:14;;;;;;;2.35;1.00;;;;;;;40.12;18.36;91970.94;2068804;69;20512;-74
2023/10/18 12:19:42;;;;;;;2.13;1.00;;;;;;;35.61;20.38;91951.00;2068944;69;20148;-74
2023/10/18 12:22:15;;;;;;;1.55;1.27;;;;;;;32.54;22.11;91938.88;2068891;69;20244;-77
2023/10/18 12:24:41;;;;;;;2.22;1.00;;;;;;;33.71;21.68;91940.56;2068952;69;20153;-73
2023/10/18 12:29:54;;;;;;;1.70;0.90;;;;;;;36.39;18.72;91933.44;2068848;69;20267;-73
2023/10/18 12:32:26;;;;;;;2.25;0.85;;;;;;;36.35;19.30;91931.41;2068398;69;20157;-75
2023/10/18 12:34:58;;;;;;;1.55;1.15;;;;;;;29.07;25.05;91903.88;2068608;69;20201;-75
2023/10/18 12:37:32;;;;;;;1.35;1.10;;;;;;;28.93;25.11;91912.84;2065721;69;20197;-75
2023/10/18 12:39:59;;;;;;;2.13;1.20;;;;;;;27.43;26.64;91906.00;2068827;69;20136;-76
2023/10/18 12:42:25;;;;;;;2.45;1.10;;;;;;;30.27;25.63;91915.66;2068540;69;20163;-76
2023/10/18 12:44:55;;;;;;;1.63;1.17;;;;;;;34.34;22.30;91917.66;2068829;69;20179;-77
2023/10/18 12:47:21;;;;;;;2.45;1.00;;;;;;;36.96;20.19;91921.16;2065740;69;20171;-78